sensor_id;sensor_type;location;lat;lon;timestamp;P1;durP1;ratioP1;P2;durP2;ratioP2
2838;SDS011;1427;48.510;9.060;2023-05-10T00:01:18;45.17;;;1.33;;
2838;SDS011;1427;48.510;9.060;2023-05-10T00:03:46;45.00;;;1.50;;
2838;SDS011;1427;48.510;9.060;2023-05-10T00:06:14;46.63;;;1.60;;
2838;SDS011;1427;48.510;9.060;2023-05-10T00:08:42;45.30;;;1.40;;
2838;SDS011;1427;48.510;9.060;2023-05-10T00:11:10;46.50;;;1.83;;
2838;SDS011;1427;48.510;9.060;2023-05-10T00:13:39;45.60;;;1.73;;
2838;SDS011;1427;48.510;9.060;2023-05-10T00:16:09;45.07;;;1.50;;
2838;SDS011;1427;48.510;9.060;2023-05-10T00:18:39;45.67;;;1.53;;
2838;SDS011;1427;48.510;9.060;2023-05-10T00:21:07;44.90;;;1.30;;
2838;SDS011;1427;48.510;9.060;2023-05-10T00:23:35;44.90;;;1.43;;
2838;SDS011;1427;48.510;9.060;2023-05-10T00:26:03;45.63;;;1.50;;
2838;SDS011;1427;48.510;9.060;2023-05-10T00:28:31;44.80;;;1.53;;
2838;SDS011;1427;48.510;9.060;2023-05-10T00:30:59;45.27;;;1.53;;
2838;SDS011;1427;48.510;9.060;2023-05-10T00:33:29;47.90;;;1.73;;
2838;SDS011;1427;48.510;9.060;2023-05-10T00:35:57;45.00;;;1.40;;
2838;SDS011;1427;48.510;9.060;2023-05-10T00:38:25;45.17;;;1.60;;
2838;SDS011;1427;48.510;9.060;2023-05-10T00:40:53;45.67;;;1.60;;
2838;SDS011;1427;48.510;9.060;2023-05-10T00:43:21;45.30;;;1.77;;
2838;SDS011;1427;48.510;9.060;2023-05-10T00:45:49;45.20;;;1.67;;
2838;SDS011;1427;48.510;9.060;2023-05-10T00:48:17;45.40;;;1.80;;
2838;SDS011;1427;48.510;9.060;2023-05-10T00:50:47;45.27;;;1.60;;
2838;SDS011;1427;48.510;9.060;2023-05-10T00:53:15;45.10;;;1.70;;
2838;SDS011;1427;48.510;9.060;2023-05-10T00:55:44;45.10;;;1.67;;
2838;SDS011;1427;48.510;9.060;2023-05-10T00:58:12;45.07;;;1.80;;
2838;SDS011;1427;48.510;9.060;2023-05-10T01:00:41;45.27;;;1.80;;
2838;SDS011;1427;48.510;9.060;2023-05-10T01:03:09;45.07;;;1.60;;
2838;SDS011;1427;48.510;9.060;2023-05-10T01:05:38;45.20;;;1.90;;
2838;SDS011;1427;48.510;9.060;2023-05-10T01:08:07;45.20;;;1.70;;
2838;SDS011;1427;48.510;9.060;2023-05-10T01:10:35;45.10;;;1.73;;
2838;SDS011;1427;48.510;9.060;2023-05-10T01:13:03;45.87;;;2.00;;
2838;SDS011;1427;48.510;9.060;2023-05-10T01:15:31;45.47;;;1.77;;
2838;SDS011;1427;48.510;9.060;2023-05-10T01:18:00;45.07;;;1.70;;
2838;SDS011;1427;48.510;9.060;2023-05-10T01:20:56;45.17;;;1.77;;
2838;SDS011;1427;48.510;9.060;2023-05-10T01:23:39;45.17;;;1.80;;
2838;SDS011;1427;48.510;9.060;2023-05-10T01:26:39;45.17;;;2.00;;
2838;SDS011;1427;48.510;9.060;2023-05-10T01:29:37;45.00;;;1.77;;
2838;SDS011;1427;48.510;9.060;2023-05-10T01:32:49;45.07;;;1.70;;
2838;SDS011;1427;48.510;9.060;2023-05-10T01:35:26;45.10;;;2.00;;
2838;SDS011;1427;48.510;9.060;2023-05-10T01:38:03;45.27;;;1.97;;
2838;SDS011;1427;48.510;9.060;2023-05-10T01:40:42;45.33;;;2.07;;
2838;SDS011;1427;48.510;9.060;2023-05-10T01:43:21;45.00;;;1.50;;
2838;SDS011;1427;48.510;9.060;2023-05-10T01:45:56;44.90;;;1.50;;
2838;SDS011;1427;48.510;9.060;2023-05-10T01:48:37;45.13;;;1.77;;
2838;SDS011;1427;48.510;9.060;2023-05-10T01:51:09;45.53;;;2.00;;
2838;SDS011;1427;48.510;9.060;2023-05-10T01:53:38;45.00;;;1.60;;
2838;SDS011;1427;48.510;9.060;2023-05-10T01:56:07;45.20;;;1.80;;
2838;SDS011;1427;48.510;9.060;2023-05-10T01:58:37;44.77;;;1.53;;
2838;SDS011;1427;48.510;9.060;2023-05-10T02:01:08;46.70;;;2.33;;
2838;SDS011;1427;48.510;9.060;2023-05-10T02:03:39;45.00;;;1.67;;
2838;SDS011;1427;48.510;9.060;2023-05-10T02:06:10;45.17;;;1.70;;
2838;SDS011;1427;48.510;9.060;2023-05-10T02:08:40;45.70;;;2.00;;
2838;SDS011;1427;48.510;9.060;2023-05-10T02:11:08;45.10;;;1.73;;
2838;SDS011;1427;48.510;9.060;2023-05-10T02:13:40;45.27;;;2.03;;
2838;SDS011;1427;48.510;9.060;2023-05-10T02:16:09;45.10;;;1.60;;
2838;SDS011;1427;48.510;9.060;2023-05-10T02:18:40;45.30;;;1.80;;
2838;SDS011;1427;48.510;9.060;2023-05-10T02:21:09;45.17;;;1.67;;
2838;SDS011;1427;48.510;9.060;2023-05-10T02:23:38;45.30;;;1.83;;
2838;SDS011;1427;48.510;9.060;2023-05-10T02:26:06;45.03;;;1.90;;
2838;SDS011;1427;48.510;9.060;2023-05-10T02:28:36;45.20;;;1.70;;
2838;SDS011;1427;48.510;9.060;2023-05-10T02:31:05;45.37;;;2.10;;
2838;SDS011;1427;48.510;9.060;2023-05-10T02:33:36;45.17;;;1.60;;
2838;SDS011;1427;48.510;9.060;2023-05-10T02:36:08;45.10;;;1.60;;
2838;SDS011;1427;48.510;9.060;2023-05-10T02:38:37;45.00;;;1.50;;
2838;SDS011;1427;48.510;9.060;2023-05-10T02:41:06;44.50;;;1.40;;
2838;SDS011;1427;48.510;9.060;2023-05-10T02:43:37;45.20;;;1.50;;
2838;SDS011;1427;48.510;9.060;2023-05-10T02:46:07;45.13;;;1.60;;
2838;SDS011;1427;48.510;9.060;2023-05-10T02:48:35;45.77;;;1.67;;
2838;SDS011;1427;48.510;9.060;2023-05-10T02:51:05;45.43;;;1.70;;
2838;SDS011;1427;48.510;9.060;2023-05-10T02:53:38;45.47;;;1.80;;
2838;SDS011;1427;48.510;9.060;2023-05-10T02:56:09;44.90;;;1.50;;
2838;SDS011;1427;48.510;9.060;2023-05-10T02:58:41;45.10;;;1.67;;
2838;SDS011;1427;48.510;9.060;2023-05-10T03:01:09;45.27;;;1.70;;
2838;SDS011;1427;48.510;9.060;2023-05-10T03:03:37;45.50;;;1.87;;
2838;SDS011;1427;48.510;9.060;2023-05-10T03:06:06;45.60;;;1.70;;
2838;SDS011;1427;48.510;9.060;2023-05-10T03:08:36;45.30;;;1.80;;
2838;SDS011;1427;48.510;9.060;2023-05-10T03:11:09;45.27;;;1.90;;
2838;SDS011;1427;48.510;9.060;2023-05-10T03:13:54;44.97;;;1.70;;
2838;SDS011;1427;48.510;9.060;2023-05-10T03:16:32;44.80;;;1.40;;
2838;SDS011;1427;48.510;9.060;2023-05-10T03:19:11;45.40;;;1.57;;
2838;SDS011;1427;48.510;9.060;2023-05-10T03:21:45;45.00;;;1.50;;
2838;SDS011;1427;48.510;9.060;2023-05-10T03:24:20;45.23;;;1.60;;
2838;SDS011;1427;48.510;9.060;2023-05-10T03:26:50;44.83;;;1.60;;
2838;SDS011;1427;48.510;9.060;2023-05-10T03:29:22;46.60;;;2.40;;
2838;SDS011;1427;48.510;9.060;2023-05-10T03:31:53;45.37;;;1.80;;
2838;SDS011;1427;48.510;9.060;2023-05-10T03:34:23;45.10;;;1.50;;
2838;SDS011;1427;48.510;9.060;2023-05-10T03:36:51;45.53;;;1.73;;
2838;SDS011;1427;48.510;9.060;2023-05-10T03:39:20;45.50;;;1.80;;
2838;SDS011;1427;48.510;9.060;2023-05-10T03:41:48;45.37;;;1.60;;
2838;SDS011;1427;48.510;9.060;2023-05-10T03:44:16;45.87;;;1.97;;
2838;SDS011;1427;48.510;9.060;2023-05-10T03:46:44;45.37;;;1.67;;
2838;SDS011;1427;48.510;9.060;2023-05-10T03:49:12;45.27;;;1.53;;
2838;SDS011;1427;48.510;9.060;2023-05-10T03:51:40;45.17;;;1.63;;
2838;SDS011;1427;48.510;9.060;2023-05-10T03:54:08;45.67;;;1.67;;
2838;SDS011;1427;48.510;9.060;2023-05-10T03:56:38;45.47;;;1.73;;
2838;SDS011;1427;48.510;9.060;2023-05-10T03:59:06;45.17;;;1.70;;
2838;SDS011;1427;48.510;9.060;2023-05-10T04:01:35;45.10;;;1.70;;
2838;SDS011;1427;48.510;9.060;2023-05-10T04:04:03;45.10;;;1.50;;
2838;SDS011;1427;48.510;9.060;2023-05-10T04:06:31;45.80;;;1.87;;
2838;SDS011;1427;48.510;9.060;2023-05-10T04:08:59;45.17;;;1.37;;
2838;SDS011;1427;48.510;9.060;2023-05-10T04:11:30;45.20;;;1.80;;
2838;SDS011;1427;48.510;9.060;2023-05-10T04:13:59;47.10;;;3.87;;
2838;SDS011;1427;48.510;9.060;2023-05-10T04:16:27;46.60;;;4.00;;
2838;SDS011;1427;48.510;9.060;2023-05-10T04:18:55;46.80;;;3.90;;
2838;SDS011;1427;48.510;9.060;2023-05-10T04:21:23;48.17;;;4.73;;
2838;SDS011;1427;48.510;9.060;2023-05-10T04:23:52;47.73;;;5.33;;
2838;SDS011;1427;48.510;9.060;2023-05-10T04:26:20;53.27;;;5.30;;
2838;SDS011;1427;48.510;9.060;2023-05-10T04:28:48;50.07;;;3.47;;
2838;SDS011;1427;48.510;9.060;2023-05-10T04:31:17;47.60;;;5.23;;
2838;SDS011;1427;48.510;9.060;2023-05-10T04:33:45;47.37;;;4.97;;
2838;SDS011;1427;48.510;9.060;2023-05-10T04:36:14;47.07;;;4.50;;
2838;SDS011;1427;48.510;9.060;2023-05-10T04:38:42;46.70;;;3.70;;
2838;SDS011;1427;48.510;9.060;2023-05-10T04:41:10;46.80;;;4.03;;
2838;SDS011;1427;48.510;9.060;2023-05-10T04:43:38;47.70;;;4.23;;
2838;SDS011;1427;48.510;9.060;2023-05-10T04:46:07;46.97;;;4.20;;
2838;SDS011;1427;48.510;9.060;2023-05-10T04:48:36;47.57;;;4.50;;
2838;SDS011;1427;48.510;9.060;2023-05-10T04:51:04;47.37;;;4.60;;
2838;SDS011;1427;48.510;9.060;2023-05-10T04:53:32;46.73;;;3.83;;
2838;SDS011;1427;48.510;9.060;2023-05-10T04:56:00;47.40;;;4.93;;
2838;SDS011;1427;48.510;9.060;2023-05-10T04:58:28;47.90;;;4.20;;
2838;SDS011;1427;48.510;9.060;2023-05-10T05:00:56;46.30;;;3.57;;
2838;SDS011;1427;48.510;9.060;2023-05-10T05:03:24;48.10;;;4.93;;
2838;SDS011;1427;48.510;9.060;2023-05-10T05:05:54;47.13;;;4.40;;
2838;SDS011;1427;48.510;9.060;2023-05-10T05:08:22;47.17;;;4.50;;
2838;SDS011;1427;48.510;9.060;2023-05-10T05:10:50;46.70;;;3.83;;
2838;SDS011;1427;48.510;9.060;2023-05-10T05:13:18;48.17;;;4.00;;
2838;SDS011;1427;48.510;9.060;2023-05-10T05:15:46;46.70;;;3.90;;
2838;SDS011;1427;48.510;9.060;2023-05-10T05:18:14;47.70;;;5.33;;
2838;SDS011;1427;48.510;9.060;2023-05-10T05:20:42;47.60;;;4.53;;
2838;SDS011;1427;48.510;9.060;2023-05-10T05:23:12;52.90;;;4.20;;
2838;SDS011;1427;48.510;9.060;2023-05-10T05:25:40;46.73;;;4.03;;
2838;SDS011;1427;48.510;9.060;2023-05-10T05:28:08;47.10;;;4.10;;
2838;SDS011;1427;48.510;9.060;2023-05-10T05:30:36;46.27;;;3.77;;
2838;SDS011;1427;48.510;9.060;2023-05-10T05:33:04;46.67;;;4.20;;
2838;SDS011;1427;48.510;9.060;2023-05-10T05:35:32;47.07;;;4.07;;
2838;SDS011;1427;48.510;9.060;2023-05-10T05:38:00;47.70;;;4.13;;
2838;SDS011;1427;48.510;9.060;2023-05-10T05:40:30;48.30;;;4.93;;
2838;SDS011;1427;48.510;9.060;2023-05-10T05:42:58;46.90;;;3.60;;
2838;SDS011;1427;48.510;9.060;2023-05-10T05:45:26;47.50;;;4.87;;
2838;SDS011;1427;48.510;9.060;2023-05-10T05:47:54;47.10;;;4.23;;
2838;SDS011;1427;48.510;9.060;2023-05-10T05:50:22;50.47;;;4.93;;
2838;SDS011;1427;48.510;9.060;2023-05-10T05:52:50;46.47;;;3.90;;
2838;SDS011;1427;48.510;9.060;2023-05-10T05:55:19;46.40;;;3.57;;
2838;SDS011;1427;48.510;9.060;2023-05-10T05:57:49;46.63;;;3.90;;
2838;SDS011;1427;48.510;9.060;2023-05-10T06:00:17;46.53;;;3.70;;
2838;SDS011;1427;48.510;9.060;2023-05-10T06:02:45;46.77;;;4.10;;
2838;SDS011;1427;48.510;9.060;2023-05-10T06:05:13;46.73;;;4.20;;
2838;SDS011;1427;48.510;9.060;2023-05-10T06:07:42;47.67;;;4.83;;
2838;SDS011;1427;48.510;9.060;2023-05-10T06:10:10;46.10;;;3.30;;
2838;SDS011;1427;48.510;9.060;2023-05-10T06:12:38;46.67;;;4.00;;
2838;SDS011;1427;48.510;9.060;2023-05-10T06:15:08;46.80;;;3.70;;
2838;SDS011;1427;48.510;9.060;2023-05-10T06:17:37;47.10;;;4.60;;
2838;SDS011;1427;48.510;9.060;2023-05-10T06:20:05;46.40;;;3.43;;
2838;SDS011;1427;48.510;9.060;2023-05-10T06:22:34;46.97;;;4.23;;
2838;SDS011;1427;48.510;9.060;2023-05-10T06:25:03;47.00;;;4.37;;
2838;SDS011;1427;48.510;9.060;2023-05-10T06:27:32;46.60;;;3.87;;
2838;SDS011;1427;48.510;9.060;2023-05-10T06:30:00;46.07;;;3.20;;
2838;SDS011;1427;48.510;9.060;2023-05-10T06:32:39;46.33;;;3.47;;
2838;SDS011;1427;48.510;9.060;2023-05-10T06:35:08;46.50;;;3.47;;
2838;SDS011;1427;48.510;9.060;2023-05-10T06:37:36;46.70;;;3.30;;
2838;SDS011;1427;48.510;9.060;2023-05-10T06:40:05;46.97;;;3.90;;
2838;SDS011;1427;48.510;9.060;2023-05-10T06:42:35;47.30;;;3.60;;
2838;SDS011;1427;48.510;9.060;2023-05-10T06:45:04;47.13;;;4.47;;
2838;SDS011;1427;48.510;9.060;2023-05-10T06:47:33;46.50;;;3.70;;
2838;SDS011;1427;48.510;9.060;2023-05-10T06:50:06;47.40;;;4.20;;
2838;SDS011;1427;48.510;9.060;2023-05-10T06:52:35;47.00;;;3.97;;
2838;SDS011;1427;48.510;9.060;2023-05-10T06:55:03;47.90;;;4.00;;
2838;SDS011;1427;48.510;9.060;2023-05-10T06:57:32;47.07;;;4.77;;
2838;SDS011;1427;48.510;9.060;2023-05-10T07:00:00;46.23;;;3.17;;
2838;SDS011;1427;48.510;9.060;2023-05-10T07:02:30;46.40;;;3.57;;
2838;SDS011;1427;48.510;9.060;2023-05-10T07:04:58;47.37;;;3.60;;
2838;SDS011;1427;48.510;9.060;2023-05-10T07:07:30;46.60;;;3.40;;
2838;SDS011;1427;48.510;9.060;2023-05-10T07:09:58;46.67;;;3.20;;
2838;SDS011;1427;48.510;9.060;2023-05-10T07:12:26;46.37;;;3.20;;
2838;SDS011;1427;48.510;9.060;2023-05-10T07:14:54;46.40;;;3.57;;
2838;SDS011;1427;48.510;9.060;2023-05-10T07:17:22;46.50;;;3.73;;
2838;SDS011;1427;48.510;9.060;2023-05-10T07:19:50;47.43;;;3.70;;
2838;SDS011;1427;48.510;9.060;2023-05-10T07:22:18;46.63;;;3.63;;
2838;SDS011;1427;48.510;9.060;2023-05-10T07:24:48;47.77;;;4.00;;
2838;SDS011;1427;48.510;9.060;2023-05-10T07:27:16;46.60;;;3.60;;
2838;SDS011;1427;48.510;9.060;2023-05-10T07:29:44;46.97;;;3.70;;
2838;SDS011;1427;48.510;9.060;2023-05-10T07:32:12;46.87;;;3.90;;
2838;SDS011;1427;48.510;9.060;2023-05-10T07:34:41;47.70;;;4.80;;
2838;SDS011;1427;48.510;9.060;2023-05-10T07:37:09;50.80;;;3.83;;
2838;SDS011;1427;48.510;9.060;2023-05-10T07:39:37;46.57;;;3.40;;
2838;SDS011;1427;48.510;9.060;2023-05-10T07:42:07;46.23;;;2.90;;
2838;SDS011;1427;48.510;9.060;2023-05-10T07:44:35;46.57;;;3.47;;
2838;SDS011;1427;48.510;9.060;2023-05-10T07:47:03;46.80;;;3.87;;
2838;SDS011;1427;48.510;9.060;2023-05-10T07:49:31;46.50;;;3.33;;
2838;SDS011;1427;48.510;9.060;2023-05-10T07:51:59;46.77;;;3.43;;
2838;SDS011;1427;48.510;9.060;2023-05-10T07:54:27;46.77;;;3.77;;
2838;SDS011;1427;48.510;9.060;2023-05-10T07:56:55;48.80;;;3.70;;
2838;SDS011;1427;48.510;9.060;2023-05-10T07:59:24;45.90;;;3.20;;
2838;SDS011;1427;48.510;9.060;2023-05-10T08:01:52;47.17;;;4.00;;
2838;SDS011;1427;48.510;9.060;2023-05-10T08:04:20;46.97;;;4.13;;
2838;SDS011;1427;48.510;9.060;2023-05-10T08:06:48;46.57;;;3.43;;
2838;SDS011;1427;48.510;9.060;2023-05-10T08:09:16;47.10;;;3.67;;
2838;SDS011;1427;48.510;9.060;2023-05-10T08:11:49;46.30;;;3.20;;
2838;SDS011;1427;48.510;9.060;2023-05-10T08:14:17;47.00;;;3.57;;
2838;SDS011;1427;48.510;9.060;2023-05-10T08:16:47;46.30;;;3.20;;
2838;SDS011;1427;48.510;9.060;2023-05-10T08:19:15;47.87;;;3.87;;
2838;SDS011;1427;48.510;9.060;2023-05-10T08:21:45;48.60;;;4.07;;
2838;SDS011;1427;48.510;9.060;2023-05-10T08:24:13;46.90;;;3.87;;
2838;SDS011;1427;48.510;9.060;2023-05-10T08:26:41;47.53;;;4.37;;
2838;SDS011;1427;48.510;9.060;2023-05-10T08:29:09;47.70;;;3.23;;
2838;SDS011;1427;48.510;9.060;2023-05-10T08:31:37;46.90;;;3.70;;
2838;SDS011;1427;48.510;9.060;2023-05-10T08:34:06;46.53;;;3.43;;
2838;SDS011;1427;48.510;9.060;2023-05-10T08:36:34;46.53;;;3.43;;
2838;SDS011;1427;48.510;9.060;2023-05-10T08:39:02;47.07;;;3.60;;
2838;SDS011;1427;48.510;9.060;2023-05-10T08:41:36;47.03;;;3.30;;
2838;SDS011;1427;48.510;9.060;2023-05-10T08:44:07;47.00;;;3.53;;
2838;SDS011;1427;48.510;9.060;2023-05-10T08:46:35;47.10;;;3.87;;
2838;SDS011;1427;48.510;9.060;2023-05-10T08:49:11;46.63;;;3.03;;
2838;SDS011;1427;48.510;9.060;2023-05-10T08:51:43;47.00;;;3.30;;
2838;SDS011;1427;48.510;9.060;2023-05-10T08:54:14;47.30;;;4.00;;
2838;SDS011;1427;48.510;9.060;2023-05-10T08:56:42;47.93;;;3.47;;
2838;SDS011;1427;48.510;9.060;2023-05-10T08:59:13;46.93;;;2.90;;
2838;SDS011;1427;48.510;9.060;2023-05-10T09:01:42;46.50;;;3.33;;
2838;SDS011;1427;48.510;9.060;2023-05-10T09:04:13;47.67;;;3.60;;
2838;SDS011;1427;48.510;9.060;2023-05-10T09:06:41;49.60;;;3.50;;
2838;SDS011;1427;48.510;9.060;2023-05-10T09:09:09;46.70;;;3.23;;
2838;SDS011;1427;48.510;9.060;2023-05-10T09:11:37;46.97;;;3.33;;
2838;SDS011;1427;48.510;9.060;2023-05-10T09:14:05;46.70;;;3.17;;
2838;SDS011;1427;48.510;9.060;2023-05-10T09:16:35;47.07;;;3.67;;
2838;SDS011;1427;48.510;9.060;2023-05-10T09:19:03;48.00;;;3.70;;
2838;SDS011;1427;48.510;9.060;2023-05-10T09:21:33;46.50;;;3.43;;
2838;SDS011;1427;48.510;9.060;2023-05-10T09:24:03;47.17;;;3.17;;
2838;SDS011;1427;48.510;9.060;2023-05-10T09:26:32;47.30;;;3.70;;
2838;SDS011;1427;48.510;9.060;2023-05-10T09:29:01;46.70;;;3.00;;
2838;SDS011;1427;48.510;9.060;2023-05-10T09:31:47;46.50;;;3.00;;
2838;SDS011;1427;48.510;9.060;2023-05-10T09:34:17;47.10;;;3.13;;
2838;SDS011;1427;48.510;9.060;2023-05-10T09:36:55;46.43;;;2.70;;
2838;SDS011;1427;48.510;9.060;2023-05-10T09:39:30;46.50;;;2.77;;
2838;SDS011;1427;48.510;9.060;2023-05-10T09:41:59;46.70;;;3.00;;
2838;SDS011;1427;48.510;9.060;2023-05-10T09:44:30;46.97;;;3.40;;
2838;SDS011;1427;48.510;9.060;2023-05-10T09:46:59;46.67;;;3.03;;
2838;SDS011;1427;48.510;9.060;2023-05-10T09:49:27;46.50;;;3.00;;
2838;SDS011;1427;48.510;9.060;2023-05-10T09:52:03;48.17;;;4.13;;
2838;SDS011;1427;48.510;9.060;2023-05-10T09:54:32;46.47;;;3.07;;
2838;SDS011;1427;48.510;9.060;2023-05-10T09:57:01;46.90;;;3.13;;
2838;SDS011;1427;48.510;9.060;2023-05-10T09:59:29;47.10;;;3.50;;
2838;SDS011;1427;48.510;9.060;2023-05-10T10:02:01;46.73;;;3.20;;
2838;SDS011;1427;48.510;9.060;2023-05-10T10:04:30;47.37;;;3.47;;
2838;SDS011;1427;48.510;9.060;2023-05-10T10:06:58;58.83;;;3.63;;
2838;SDS011;1427;48.510;9.060;2023-05-10T10:09:29;47.30;;;3.67;;
2838;SDS011;1427;48.510;9.060;2023-05-10T10:11:57;47.87;;;4.50;;
2838;SDS011;1427;48.510;9.060;2023-05-10T10:14:26;48.20;;;4.50;;
2838;SDS011;1427;48.510;9.060;2023-05-10T10:16:54;46.40;;;2.97;;
2838;SDS011;1427;48.510;9.060;2023-05-10T10:19:33;47.27;;;3.83;;
2838;SDS011;1427;48.510;9.060;2023-05-10T10:22:03;46.57;;;3.03;;
2838;SDS011;1427;48.510;9.060;2023-05-10T10:24:33;46.77;;;3.30;;
2838;SDS011;1427;48.510;9.060;2023-05-10T10:27:04;47.97;;;4.03;;
2838;SDS011;1427;48.510;9.060;2023-05-10T10:29:45;46.50;;;3.37;;
2838;SDS011;1427;48.510;9.060;2023-05-10T10:32:22;46.90;;;3.63;;
2838;SDS011;1427;48.510;9.060;2023-05-10T10:34:55;47.53;;;3.30;;
2838;SDS011;1427;48.510;9.060;2023-05-10T10:37:23;47.07;;;3.30;;
2838;SDS011;1427;48.510;9.060;2023-05-10T10:48:41;46.40;;;3.17;;
2838;SDS011;1427;48.510;9.060;2023-05-10T10:51:14;47.80;;;3.30;;
2838;SDS011;1427;48.510;9.060;2023-05-10T10:53:42;46.37;;;3.13;;
2838;SDS011;1427;48.510;9.060;2023-05-10T10:56:12;47.20;;;3.70;;
2838;SDS011;1427;48.510;9.060;2023-05-10T10:58:42;62.37;;;4.27;;
2838;SDS011;1427;48.510;9.060;2023-05-10T11:01:17;47.67;;;3.50;;
2838;SDS011;1427;48.510;9.060;2023-05-10T11:06:46;46.70;;;2.83;;
2838;SDS011;1427;48.510;9.060;2023-05-10T11:09:16;47.60;;;3.43;;
2838;SDS011;1427;48.510;9.060;2023-05-10T11:11:50;46.77;;;3.33;;
2838;SDS011;1427;48.510;9.060;2023-05-10T11:14:21;47.57;;;3.33;;
2838;SDS011;1427;48.510;9.060;2023-05-10T11:16:50;48.57;;;3.70;;
2838;SDS011;1427;48.510;9.060;2023-05-10T11:19:18;46.67;;;3.37;;
2838;SDS011;1427;48.510;9.060;2023-05-10T11:21:47;47.00;;;3.37;;
2838;SDS011;1427;48.510;9.060;2023-05-10T11:24:17;46.90;;;3.33;;
2838;SDS011;1427;48.510;9.060;2023-05-10T11:26:49;46.93;;;3.40;;
2838;SDS011;1427;48.510;9.060;2023-05-10T11:29:18;46.80;;;3.10;;
2838;SDS011;1427;48.510;9.060;2023-05-10T11:31:46;46.83;;;3.30;;
2838;SDS011;1427;48.510;9.060;2023-05-10T11:34:22;46.67;;;3.57;;
2838;SDS011;1427;48.510;9.060;2023-05-10T11:36:52;46.30;;;2.80;;
2838;SDS011;1427;48.510;9.060;2023-05-10T11:39:21;46.53;;;3.40;;
2838;SDS011;1427;48.510;9.060;2023-05-10T11:41:54;46.67;;;2.87;;
2838;SDS011;1427;48.510;9.060;2023-05-10T11:44:23;46.73;;;3.07;;
2838;SDS011;1427;48.510;9.060;2023-05-10T11:46:51;46.60;;;3.17;;
2838;SDS011;1427;48.510;9.060;2023-05-10T11:49:19;52.63;;;3.77;;
2838;SDS011;1427;48.510;9.060;2023-05-10T11:51:51;46.70;;;3.40;;
2838;SDS011;1427;48.510;9.060;2023-05-10T11:54:19;49.20;;;4.13;;
2838;SDS011;1427;48.510;9.060;2023-05-10T11:56:47;47.43;;;4.20;;
2838;SDS011;1427;48.510;9.060;2023-05-10T11:59:16;47.07;;;3.50;;
2838;SDS011;1427;48.510;9.060;2023-05-10T12:01:44;57.73;;;3.43;;
2838;SDS011;1427;48.510;9.060;2023-05-10T12:04:12;47.10;;;3.70;;
2838;SDS011;1427;48.510;9.060;2023-05-10T12:06:41;47.63;;;4.03;;
2838;SDS011;1427;48.510;9.060;2023-05-10T12:09:09;46.70;;;3.57;;
2838;SDS011;1427;48.510;9.060;2023-05-10T12:11:38;47.33;;;4.10;;
2838;SDS011;1427;48.510;9.060;2023-05-10T12:14:09;47.07;;;3.60;;
2838;SDS011;1427;48.510;9.060;2023-05-10T12:16:39;47.77;;;3.57;;
2838;SDS011;1427;48.510;9.060;2023-05-10T12:19:09;46.50;;;2.93;;
2838;SDS011;1427;48.510;9.060;2023-05-10T12:21:37;46.80;;;3.33;;
2838;SDS011;1427;48.510;9.060;2023-05-10T12:24:07;47.70;;;3.63;;
2838;SDS011;1427;48.510;9.060;2023-05-10T12:26:37;49.43;;;4.77;;
2838;SDS011;1427;48.510;9.060;2023-05-10T12:29:12;46.77;;;3.20;;
2838;SDS011;1427;48.510;9.060;2023-05-10T12:31:53;48.27;;;4.70;;
2838;SDS011;1427;48.510;9.060;2023-05-10T12:34:23;46.17;;;3.10;;
2838;SDS011;1427;48.510;9.060;2023-05-10T12:36:52;48.37;;;4.00;;
2838;SDS011;1427;48.510;9.060;2023-05-10T12:39:21;46.60;;;3.30;;
2838;SDS011;1427;48.510;9.060;2023-05-10T12:41:50;46.80;;;3.70;;
2838;SDS011;1427;48.510;9.060;2023-05-10T12:44:19;47.00;;;3.43;;
2838;SDS011;1427;48.510;9.060;2023-05-10T12:46:47;47.50;;;3.70;;
2838;SDS011;1427;48.510;9.060;2023-05-10T12:49:17;46.80;;;3.33;;
2838;SDS011;1427;48.510;9.060;2023-05-10T12:51:45;46.83;;;3.37;;
2838;SDS011;1427;48.510;9.060;2023-05-10T12:54:18;46.93;;;3.63;;
2838;SDS011;1427;48.510;9.060;2023-05-10T12:56:49;47.17;;;3.67;;
2838;SDS011;1427;48.510;9.060;2023-05-10T12:59:17;47.23;;;3.97;;
2838;SDS011;1427;48.510;9.060;2023-05-10T13:01:45;46.70;;;3.70;;
2838;SDS011;1427;48.510;9.060;2023-05-10T13:04:13;46.70;;;3.03;;
2838;SDS011;1427;48.510;9.060;2023-05-10T13:06:43;47.97;;;3.70;;
2838;SDS011;1427;48.510;9.060;2023-05-10T13:09:11;46.80;;;3.83;;
2838;SDS011;1427;48.510;9.060;2023-05-10T13:11:39;47.57;;;3.90;;
2838;SDS011;1427;48.510;9.060;2023-05-10T13:14:07;47.67;;;3.30;;
2838;SDS011;1427;48.510;9.060;2023-05-10T13:16:35;47.00;;;3.40;;
2838;SDS011;1427;48.510;9.060;2023-05-10T13:19:03;46.77;;;3.43;;
2838;SDS011;1427;48.510;9.060;2023-05-10T13:21:31;48.20;;;3.37;;
2838;SDS011;1427;48.510;9.060;2023-05-10T13:24:00;48.10;;;3.93;;
2838;SDS011;1427;48.510;9.060;2023-05-10T13:26:29;47.10;;;3.80;;
2838;SDS011;1427;48.510;9.060;2023-05-10T13:28:57;47.07;;;3.00;;
2838;SDS011;1427;48.510;9.060;2023-05-10T13:31:25;47.17;;;4.10;;
2838;SDS011;1427;48.510;9.060;2023-05-10T13:33:53;46.67;;;3.20;;
2838;SDS011;1427;48.510;9.060;2023-05-10T13:36:23;48.27;;;3.77;;
2838;SDS011;1427;48.510;9.060;2023-05-10T13:38:51;46.60;;;3.30;;
2838;SDS011;1427;48.510;9.060;2023-05-10T13:41:20;48.47;;;3.77;;
2838;SDS011;1427;48.510;9.060;2023-05-10T13:43:49;47.20;;;3.47;;
2838;SDS011;1427;48.510;9.060;2023-05-10T13:46:17;54.07;;;3.67;;
2838;SDS011;1427;48.510;9.060;2023-05-10T13:48:45;47.03;;;4.23;;
2838;SDS011;1427;48.510;9.060;2023-05-10T13:51:14;47.23;;;3.80;;
2838;SDS011;1427;48.510;9.060;2023-05-10T13:53:42;47.00;;;3.60;;
2838;SDS011;1427;48.510;9.060;2023-05-10T13:56:10;46.87;;;3.37;;
2838;SDS011;1427;48.510;9.060;2023-05-10T13:58:40;47.10;;;3.77;;
2838;SDS011;1427;48.510;9.060;2023-05-10T14:01:08;46.60;;;3.30;;
2838;SDS011;1427;48.510;9.060;2023-05-10T14:03:38;47.30;;;4.27;;
2838;SDS011;1427;48.510;9.060;2023-05-10T14:06:07;47.10;;;3.70;;
2838;SDS011;1427;48.510;9.060;2023-05-10T14:08:35;47.27;;;4.07;;
2838;SDS011;1427;48.510;9.060;2023-05-10T14:11:03;47.77;;;3.20;;
2838;SDS011;1427;48.510;9.060;2023-05-10T14:13:32;46.50;;;3.20;;
2838;SDS011;1427;48.510;9.060;2023-05-10T14:16:01;47.10;;;3.77;;
2838;SDS011;1427;48.510;9.060;2023-05-10T14:18:30;47.23;;;3.60;;
2838;SDS011;1427;48.510;9.060;2023-05-10T14:20:58;47.40;;;4.40;;
2838;SDS011;1427;48.510;9.060;2023-05-10T14:23:26;46.80;;;3.47;;
2838;SDS011;1427;48.510;9.060;2023-05-10T14:25:55;47.20;;;4.20;;
2838;SDS011;1427;48.510;9.060;2023-05-10T14:28:23;46.57;;;3.20;;
2838;SDS011;1427;48.510;9.060;2023-05-10T14:30:52;46.80;;;3.50;;
2838;SDS011;1427;48.510;9.060;2023-05-10T14:33:21;48.70;;;3.93;;
2838;SDS011;1427;48.510;9.060;2023-05-10T14:35:49;46.30;;;2.80;;
2838;SDS011;1427;48.510;9.060;2023-05-10T14:38:17;48.33;;;4.40;;
2838;SDS011;1427;48.510;9.060;2023-05-10T14:40:45;46.77;;;3.33;;
2838;SDS011;1427;48.510;9.060;2023-05-10T14:43:14;48.50;;;3.73;;
2838;SDS011;1427;48.510;9.060;2023-05-10T14:45:43;46.77;;;3.40;;
2838;SDS011;1427;48.510;9.060;2023-05-10T14:48:11;46.80;;;3.30;;
2838;SDS011;1427;48.510;9.060;2023-05-10T14:50:43;47.60;;;3.90;;
2838;SDS011;1427;48.510;9.060;2023-05-10T14:53:12;46.90;;;3.90;;
2838;SDS011;1427;48.510;9.060;2023-05-10T14:55:41;46.87;;;3.80;;
2838;SDS011;1427;48.510;9.060;2023-05-10T14:58:09;46.40;;;3.43;;
2838;SDS011;1427;48.510;9.060;2023-05-10T15:00:38;46.70;;;3.10;;
2838;SDS011;1427;48.510;9.060;2023-05-10T15:03:07;47.10;;;3.77;;
2838;SDS011;1427;48.510;9.060;2023-05-10T15:05:35;47.10;;;3.87;;
2838;SDS011;1427;48.510;9.060;2023-05-10T15:08:05;46.57;;;3.47;;
2838;SDS011;1427;48.510;9.060;2023-05-10T15:10:33;47.90;;;5.27;;
2838;SDS011;1427;48.510;9.060;2023-05-10T15:13:03;47.47;;;4.10;;
2838;SDS011;1427;48.510;9.060;2023-05-10T15:15:31;48.17;;;5.70;;
2838;SDS011;1427;48.510;9.060;2023-05-10T15:17:59;47.50;;;4.53;;
2838;SDS011;1427;48.510;9.060;2023-05-10T15:20:27;47.70;;;4.30;;
2838;SDS011;1427;48.510;9.060;2023-05-10T15:22:55;47.07;;;4.13;;
2838;SDS011;1427;48.510;9.060;2023-05-10T15:25:25;47.77;;;3.63;;
2838;SDS011;1427;48.510;9.060;2023-05-10T15:27:53;48.30;;;4.83;;